Flight Track Log - Related Links

Times and Time Zones

All times are in EDT time to prevent confusion due to time zone crossing. See the N550VW flight status page for this flight to view local times or setup timezone preferences in your user account.

Time Position Orientation Groundspeed Altitude Reporting Facility
EDT Latitude Longitude Course Direction KTS MPH feet Rate Location/Type
Tue 09:12:17 AM 37.6667 -97.4158 24° Northeast 174 200 1,700  Level Kansas Center
Tue 09:13:42 AM 37.7364 -97.3758 24° Northeast 201 231 4,900 2,147 Climbing Kansas Center
Tue 09:14:06 AM 37.7583 -97.3636 24° Northeast 196 226 5,600 1,869 Climbing Kansas Center
Tue 09:14:43 AM 37.7703 -97.3150 73° East 247 284 6,800 2,164 Climbing Kansas Center
Tue 09:15:07 AM 37.7769 -97.2836 75° East 243 280 7,800 2,125 Climbing Kansas Center
Tue 09:15:31 AM 37.7847 -97.2492 74° East 241 277 8,500 1,770 Climbing Kansas Center
Tue 09:16:08 AM 37.8003 -97.2042 66° East 240 276 9,600 1,740 Climbing Kansas Center
Tue 09:17:11 AM 37.8183 -97.1214 75° East 245 282 11,400 1,645 Climbing Kansas Center
Tue 09:18:12 AM 37.8372 -97.0358 74° East 251 289 13,000 1,610 Climbing Kansas Center
Tue 09:19:14 AM 37.8556 -96.9486 75° East 255 293 14,700 1,623 Climbing Kansas Center
Tue 09:20:14 AM 37.8753 -96.8636 74° East 254 292 16,300 1,597 Climbing Kansas Center
Tue 09:21:18 AM 37.9019 -96.7656 71° East 249 287 18,000 1,381 Climbing Kansas Center
Tue 09:22:20 AM 37.9314 -96.6864 65° Northeast 249 287 19,200 1,230 Climbing Kansas Center
Tue 09:23:20 AM 37.9611 -96.6050 65° Northeast 253 291 20,500 1,258 Climbing Kansas Center
Tue 09:24:24 AM 37.9914 -96.5236 65° Northeast 254 292 21,800 1,152 Climbing Kansas Center
Tue 09:25:25 AM 38.0217 -96.4408 65° Northeast 259 298 22,900 1,033 Climbing Kansas Center
Tue 09:26:26 AM 38.0525 -96.3553 65° Northeast 264 304 23,900 1,016 Climbing Kansas Center
Tue 09:27:29 AM 38.0836 -96.2697 65° Northeast 267 307 25,000 1,122 Climbing Kansas Center
Tue 09:28:29 AM 38.1214 -96.1667 65° Northeast 269 310 26,200 1,113 Climbing Kansas Center
Tue 09:29:33 AM 38.1514 -96.0833 65° Northeast 273 314 27,300 919 Climbing Kansas Center
Tue 09:30:33 AM 38.1856 -95.9864 66° East 270 311 28,100 942 Climbing Kansas Center
Tue 09:31:34 AM 38.2164 -95.9028 65° Northeast 272 313 29,200 919 Climbing Kansas Center
Tue 09:32:37 AM 38.2506 -95.8064 66° East 268 308 30,000 774 Climbing Kansas Center
Tue 09:33:38 AM 38.2800 -95.7228 66° East 271 312 30,800 480 Climbing Kansas Center
Tue 09:34:42 AM 38.3111 -95.6372 65° Northeast 277 319 31,000 96 Climbing Kansas Center
Tue 09:35:43 AM 38.3508 -95.5256 66° East 307 353 31,000  Level Kansas Center
Tue 09:36:45 AM 38.3861 -95.4236 66° East 324 373 31,000  Level Kansas Center
Tue 09:37:46 AM 38.4294 -95.3003 66° East 339 390 31,000  Level Kansas Center
Tue 09:38:50 AM 38.4675 -95.1942 65° Northeast 344 396 31,000  Level Kansas Center
Tue 09:39:50 AM 38.5119 -95.0658 66° East 353 406 31,000  Level Kansas Center
Tue 09:40:52 AM 38.5500 -94.9572 66° East 352 405 31,000  Level Kansas Center
Tue 09:41:53 AM 38.5944 -94.8297 66° East 352 405 31,000  Level Kansas Center
Tue 09:42:57 AM 38.6331 -94.7194 66° East 356 410 31,000  Level Kansas Center
Tue 09:43:58 AM 38.6764 -94.5917 66° East 353 406 31,000  Level Kansas Center
Tue 09:44:59 AM 38.7153 -94.4814 66° East 355 409 31,000  Level Kansas Center
Tue 09:46:03 AM 38.7594 -94.3500 67° East 359 413 31,000  Level Kansas Center
Tue 09:47:04 AM 38.7978 -94.2375 66° East 361 415 31,000 144 Level Kansas Center
Tue 09:48:08 AM 38.8428 -94.1047 66° East 359 413 31,300 290 Climbing Kansas Center
Tue 09:49:08 AM 38.8789 -93.9972 67° East 352 405 31,600 393 Climbing Kansas Center
Tue 09:50:10 AM 38.9217 -93.8717 66° East 345 397 32,100 432 Climbing Kansas Center
Tue 09:51:13 AM 38.9561 -93.7653 67° East 340 391 32,500 290 Climbing Kansas Center
Tue 09:52:14 AM 38.9917 -93.6583 67° East 342 394 32,700 190 Climbing Kansas Center
Tue 09:53:19 AM 39.0339 -93.5308 67° East 346 398 32,900 144 Climbing Kansas Center
Tue 09:54:19 AM 39.0706 -93.4217 67° East 347 399 33,000 50 Climbing Kansas Center
Tue 09:55:20 AM 39.1139 -93.2900 67° East 361 415 33,000  Level Kansas Center
Tue 09:56:24 AM 39.1519 -93.1717 67° East 362 417 33,000  Level Kansas Center
Tue 09:57:24 AM 39.1911 -93.0550 67° East 360 414 33,000  Level Kansas Center
Tue 09:58:27 AM 39.2375 -92.9122 67° East 361 415 33,000  Level Kansas Center
Tue 09:59:29 AM 39.2758 -92.7931 67° East 363 418 33,000  Level Kansas Center
Tue 10:00:31 AM 39.3136 -92.6742 68° East 362 417 33,000  Level Kansas Center
Tue 10:01:33 AM 39.3517 -92.5567 67° East 361 415 33,000  Level Kansas Center
Tue 10:02:34 AM 39.3894 -92.4400 67° East 358 412 33,000  Level Kansas Center
Tue 10:03:38 AM 39.4350 -92.2992 67° East 357 411 33,000  Level Kansas Center
Tue 10:04:38 AM 39.4719 -92.1806 68° East 359 413 33,000  Level Kansas Center
Tue 10:05:40 AM 39.5106 -92.0608 67° East 361 415 33,000  Level Kansas Center
Tue 10:06:44 AM 39.5483 -91.9419 68° East 361 415 33,000  Level Kansas Center
Tue 10:07:44 AM 39.5922 -91.8003 68° East 359 413 33,000  Level Kansas Center
Tue 10:08:47 AM 39.6286 -91.6822 68° East 358 412 33,000  Level Kansas Center
Tue 10:09:49 AM 39.6650 -91.5644 68° East 356 410 33,000  Level Kansas Center
Tue 10:10:52 AM 39.7011 -91.4447 69° East 358 412 33,000  Level Kansas Center
Tue 10:11:54 AM 39.7381 -91.3258 68° East 358 412 33,000  Level Kansas Center
Tue 10:12:55 AM 39.7842 -91.1797 68° East 364 419 33,000  Level Kansas Center
Tue 10:13:56 AM 39.8206 -91.0586 69° East 363 418 33,000  Level Kansas Center
Tue 10:14:59 AM 39.8561 -90.9378 69° East 364 419 33,000  Level Kansas Center
Tue 10:16:01 AM 39.8925 -90.8147 69° East 365 420 33,000  Level Kansas Center
Tue 10:17:04 AM 39.9292 -90.6931 69° East 363 418 33,000  Level Kansas Center
Tue 10:18:05 AM 39.9731 -90.5472 69° East 361 415 33,000  Level Kansas Center
Tue 10:19:08 AM 40.0094 -90.4247 69° East 363 418 33,000  Level Kansas Center
Tue 10:20:09 AM 40.0458 -90.3022 69° East 363 418 33,000  Level Kansas Center
Tue 10:21:12 AM 40.0825 -90.1783 69° East 365 420 33,000  Level Kansas Center
Tue 10:22:13 AM 40.1183 -90.0553 69° East 365 420 33,000  Level Kansas Center
Tue 10:23:14 AM 40.1544 -89.9314 69° East 366 421 33,000  Level Kansas Center
Tue 10:24:22 AM 40.1983 -89.7828 69° East 369 425 33,000  Level Chicago Center
Tue 10:25:24 AM 40.2339 -89.6581 69° East 368 423 33,000  Level Chicago Center
Tue 10:26:26 AM 40.2764 -89.5067 70° East 371 427 33,000 145 Level Chicago Center
Tue 10:27:28 AM 40.3119 -89.3828 69° East 368 423 33,300 290 Climbing Chicago Center
Tue 10:28:30 AM 40.3472 -89.2606 69° East 363 418 33,600 339 Climbing Chicago Center
Tue 10:29:32 AM 40.3822 -89.1392 69° East 360 414 34,000 339 Climbing Chicago Center
Tue 10:30:34 AM 40.4153 -89.0197 70° East 353 406 34,300 339 Climbing Chicago Center
Tue 10:31:36 AM 40.4486 -88.8975 70° East 356 410 34,700 336 Climbing Chicago Center
Tue 10:32:39 AM 40.4900 -88.7517 69° East 349 402 35,000 144 Climbing Chicago Center
Tue 10:33:41 AM 40.5236 -88.6292 70° East 358 412 35,000  Level Chicago Center
Tue 10:34:43 AM 40.5586 -88.5047 70° East 365 420 35,000  Level Chicago Center
Tue 10:35:45 AM 40.5925 -88.3786 70° East 368 423 35,000  Level Chicago Center
Tue 10:36:47 AM 40.6272 -88.2519 70° East 370 426 35,000  Level Chicago Center
Tue 10:37:49 AM 40.6697 -88.0975 70° East 375 432 35,000  Level Chicago Center
Tue 10:38:51 AM 40.7047 -87.9692 70° East 375 432 35,000  Level Chicago Center
Tue 10:39:53 AM 40.7400 -87.8378 70° East 380 437 35,000  Level Chicago Center
Tue 10:40:55 AM 40.7742 -87.7089 71° East 378 435 35,000  Level Chicago Center
Tue 10:41:57 AM 40.8089 -87.5789 71° East 380 437 35,000  Level Chicago Center
Tue 10:43:00 AM 40.8506 -87.4228 71° East 379 436 35,000  Level Chicago Center
Tue 10:44:02 AM 40.8839 -87.2942 71° East 375 432 35,000  Level Chicago Center
Tue 10:45:04 AM 40.9183 -87.1636 71° East 380 437 35,000  Level Chicago Center
Tue 10:46:06 AM 40.9531 -87.0319 71° East 381 438 35,000  Level Chicago Center
Tue 10:47:08 AM 40.9856 -86.9011 72° East 380 437 35,000  Level Chicago Center
Tue 10:48:10 AM 41.0272 -86.7433 71° East 381 438 35,000  Level Chicago Center
Tue 10:49:12 AM 41.0575 -86.6239 71° East 385 443 35,000  Level Chicago Center
Tue 10:50:14 AM 41.0919 -86.4922 71° East 381 438 35,000  Level Chicago Center
Tue 10:51:16 AM 41.1317 -86.3314 72° East 383 441 35,000  Level Chicago Center
Tue 10:52:18 AM 41.1650 -86.2000 71° East 381 438 35,000  Level Chicago Center
Tue 10:53:20 AM 41.1972 -86.0667 72° East 381 438 35,000  Level Chicago Center
Tue 10:54:22 AM 41.2311 -85.9342 71° East 382 440 35,000  Level Chicago Center
Tue 10:55:24 AM 41.2625 -85.8025 72° East 378 435 35,000  Level Chicago Center
Tue 10:56:26 AM 41.3014 -85.6439 72° East 379 436 35,000  Level Chicago Center
Tue 10:57:28 AM 41.3333 -85.5097 72° East 383 441 35,000  Level Chicago Center
Tue 10:58:29 AM 41.3656 -85.3789 72° East 379 436 35,000  Level Chicago Center
Tue 10:59:31 AM 41.3969 -85.2481 72° East 378 435 35,000  Level Chicago Center
Tue 11:00:33 AM 41.4286 -85.1172 72° East 377 434 35,000  Level Chicago Center
Tue 11:01:35 AM 41.4658 -84.9594 72° East 376 433 35,000  Level Chicago Center
Tue 11:02:37 AM 41.4967 -84.8278 73° East 376 433 35,000  Level Chicago Center
Tue 11:03:39 AM 41.5283 -84.6975 72° East 373 429 35,000  Level Chicago Center
Tue 11:04:41 AM 41.5592 -84.5656 73° East 374 430 35,000  Level Chicago Center
Tue 11:05:43 AM 41.5894 -84.4333 73° East 374 430 35,000  Level Chicago Center
Tue 11:06:53 AM 41.6267 -84.2753 72° East 373 429 35,000  Level Cleveland Center
Tue 11:07:55 AM 41.6578 -84.1331 74° East 372 428 35,000  Level Cleveland Center
Tue 11:08:57 AM 41.6881 -84.0025 73° East 371 427 35,000  Level Cleveland Center
Tue 11:09:59 AM 41.7169 -83.8722 73° East 367 422 35,000  Level Cleveland Center
Tue 11:11:01 AM 41.7469 -83.7408 73° East 369 425 35,000  Level Cleveland Center
Tue 11:12:02 AM 41.7808 -83.5839 74° East 369 425 35,000  Level Cleveland Center
Tue 11:13:04 AM 41.8106 -83.4539 73° East 369 425 35,000  Level Cleveland Center
Tue 11:14:06 AM 41.8403 -83.3236 73° East 369 425 35,000  Level Cleveland Center
Tue 11:15:09 AM 41.8683 -83.1933 74° East 367 422 35,000  Level Cleveland Center
Tue 11:16:10 AM 41.8969 -83.0611 74° East 372 428 35,000  Level Cleveland Center
Tue 11:17:12 AM 41.9308 -82.9042 74° East 369 425 35,000  Level Cleveland Center
Tue 11:18:14 AM 41.9597 -82.7728 73° East 368 423 35,000  Level Cleveland Center
Tue 11:19:15 AM 41.9875 -82.6408 74° East 370 426 35,000  Level Cleveland Center
Tue 11:20:17 AM 42.0147 -82.5097 74° East 369 425 35,000  Level Cleveland Center
Tue 11:21:19 AM 42.0425 -82.3781 74° East 368 423 35,000  Level Cleveland Center
Tue 11:22:21 AM 42.0706 -82.2453 74° East 370 426 35,000  Level Cleveland Center
Tue 11:23:23 AM 42.1017 -82.0931 75° East 371 427 35,000  Level Cleveland Center
Tue 11:24:25 AM 42.1308 -81.9583 74° East 371 427 35,000  Level Cleveland Center
Tue 11:25:26 AM 42.1581 -81.8258 74° East 365 420 35,000  Level Cleveland Center
Tue 11:26:28 AM 42.1853 -81.6917 75° East 366 421 35,000  Level Cleveland Center
Tue 11:27:30 AM 42.2119 -81.5594 75° East 363 418 35,000  Level Cleveland Center
Tue 11:28:32 AM 42.2389 -81.4261 75° East 365 420 35,000  Level Cleveland Center
Tue 11:29:33 AM 42.2700 -81.2700 75° East 366 421 35,000  Level Cleveland Center
Tue 11:30:35 AM 42.2867 -81.1322 81° East 367 422 35,000  Level Cleveland Center
Tue 11:31:37 AM 42.3064 -80.9964 79° East 367 422 35,000  Level Cleveland Center
Tue 11:32:38 AM 42.3247 -80.8600 80° East 365 420 35,000  Level Cleveland Center
Tue 11:33:40 AM 42.3428 -80.7242 80° East 363 418 35,000  Level Cleveland Center
Tue 11:34:42 AM 42.3617 -80.5872 79° East 366 421 35,000  Level Cleveland Center
Tue 11:35:43 AM 42.3789 -80.4517 80° East 364 419 35,000  Level Cleveland Center
Tue 11:36:45 AM 42.3983 -80.3158 79° East 365 420 35,000  Level Cleveland Center
Tue 11:37:47 AM 42.4167 -80.1792 80° East 366 421 35,000  Level Cleveland Center
Tue 11:38:48 AM 42.4336 -80.0411 81° East 362 417 35,000  Level Cleveland Center
Tue 11:39:50 AM 42.4514 -79.9050 80° East 369 425 35,000  Level Cleveland Center
Tue 11:40:52 AM 42.4719 -79.7453 80° East 361 415 35,000  Level Cleveland Center
Tue 11:41:53 AM 42.4883 -79.6111 81° East 362 417 35,000  Level Cleveland Center
Tue 11:42:55 AM 42.5042 -79.4775 81° East 361 415 35,000  Level Cleveland Center
Tue 11:43:57 AM 42.5208 -79.3456 80° East 358 412 35,000  Level Cleveland Center
Tue 11:44:58 AM 42.5378 -79.2119 80° East 359 413 35,000  Level Cleveland Center
Tue 11:46:00 AM 42.5528 -79.0789 81° East 358 412 35,000  Level Cleveland Center
Tue 11:47:01 AM 42.5678 -78.9444 81° East 360 414 35,000  Level Cleveland Center
Tue 11:48:03 AM 42.5842 -78.8097 81° East 363 418 35,000  Level Cleveland Center
Tue 11:49:05 AM 42.6019 -78.6475 81° East 364 419 35,000 -195 Level Cleveland Center
Tue 11:50:06 AM 42.6175 -78.5097 81° East 370 426 34,600 -390 Descending Cleveland Center
Tue 11:51:08 AM 42.6336 -78.3686 81° East 376 433 34,200 -435 Descending Cleveland Center
Tue 11:52:10 AM 42.6489 -78.2289 81° East 375 432 33,700 -439 Descending Cleveland Center
Tue 11:53:11 AM 42.6647 -78.0889 81° East 375 432 33,300 -439 Descending Cleveland Center
Tue 11:54:13 AM 42.6806 -77.9494 81° East 372 428 32,800 -435 Descending Cleveland Center
Tue 11:55:15 AM 42.6961 -77.8106 81° East 370 426 32,400 -484 Descending Cleveland Center
Tue 11:56:17 AM 42.7106 -77.6464 83° East 372 428 31,800 -488 Descending Cleveland Center
Tue 11:57:18 AM 42.7258 -77.5256 80° East 368 423 31,400 -390 Descending Cleveland Center
Tue 11:58:20 AM 42.7400 -77.3861 82° East 369 425 31,000 -435 Descending Cleveland Center
Tue 11:59:22 AM 42.7569 -77.2203 82° East 368 423 30,500 -484 Descending Cleveland Center
Tue 12:00:24 PM 42.7719 -77.0825 82° East 368 423 30,000 -439 Descending Cleveland Center
Tue 12:01:25 PM 42.7847 -76.9444 83° East 368 423 29,600 -439 Descending Cleveland Center
Tue 12:02:27 PM 42.7989 -76.8075 82° East 367 422 29,100 -290 Descending Cleveland Center
Tue 12:03:29 PM 42.8136 -76.6583 82° East 364 419 29,000 -48 Descending Cleveland Center
Tue 12:04:31 PM 42.8261 -76.5236 83° East 360 414 29,000 -45 Level Cleveland Center
Tue 12:05:41 PM 42.8433 -76.3625 82° East 365 420 28,900 -277 Descending Boston Center
Tue 12:06:41 PM 42.8564 -76.2272 82° East 365 420 28,400 -1,068 Descending Boston Center
Tue 12:07:39 PM 42.8694 -76.0836 83° East 370 426 26,800 -1,627 Descending Boston Center
Tue 12:08:39 PM 42.8822 -75.9369 83° East 381 438 25,200 -1,636 Descending Boston Center
Tue 12:09:40 PM 42.8950 -75.7958 83° East 386 444 23,500 -1,623 Descending Boston Center
Tue 12:10:41 PM 42.9072 -75.6606 83° East 375 432 21,900 -1,587 Descending Boston Center
Tue 12:11:41 PM 42.9192 -75.5306 83° East 360 414 20,300 -1,537 Descending Boston Center
Tue 12:12:42 PM 42.9308 -75.4008 83° East 349 402 18,800 -1,261 Descending Boston Center
Tue 12:13:40 PM 42.9403 -75.2764 84° East 343 395 17,800 -1,068 Descending Boston Center
Tue 12:14:40 PM 42.9497 -75.1519 84° East 337 388 16,700 99 Descending Boston Center
Tue 12:15:41 PM 42.9608 -75.0247 83° East 332 382 18,000 -1,147 Climbing Boston Center
Tue 12:16:56 PM 42.9725 -74.8778 84° East 318 366 14,100 -2,400 Descending Boston Center
Tue 12:17:41 PM 42.9786 -74.7814 85° East 321 369 13,200 -1,180 Descending Boston Center
Tue 12:17:57 PM 42.9833 -74.7503 78° East 317 365 12,900 -1,034 Descending Boston Center
Tue 12:18:39 PM 42.9869 -74.6739 86° East 321 369 12,200 -1,100 Descending Boston Center
Tue 12:18:57 PM 42.9919 -74.6314 81° East 314 361 11,800 -1,082 Descending Boston Center
Tue 12:19:40 PM 42.9978 -74.5436 85° East 315 362 11,100 -787 Descending Boston Center
Tue 12:19:58 PM 43.0025 -74.5125 78° East 310 357 11,000 -885 Descending Boston Center
Tue 12:20:41 PM 43.0058 -74.4447 86° East 305 351 10,200 -1,770 Descending Boston Center
Tue 12:20:59 PM 43.0108 -74.3994 81° East 300 345 9,200 -2,900 Descending Boston Center
Tue 12:21:41 PM 43.0142 -74.3283 86° East 290 334 7,300 -2,600 Descending Boston Center
Tue 12:21:59 PM 43.0167 -74.2972 84° East 270 311 6,600 -1,180 Descending Boston Center
Tue 12:22:42 PM 43.0200 -74.2319 86° East 285 328 6,100 6,840 Descending Boston Center
Tue 12:23:39 PM 43.0278 -74.1244 84° East 285 328 18,000 6,103 Climbing Boston Center
Tue 12:24:39 PM 43.0331 -74.0392 85° East 285 328 18,000  Level Boston Center
Tue 12:25:40 PM 43.0411 -73.9117 85° East 285 328 18,000  Level Boston Center
Tue 12:26:40 PM 43.0439 -73.8492 86° East 285 328 18,000  Level Boston Center
Tue 12:27:41 PM 43.0439 -73.8492 115° Southeast 285 328 18,000  Level Boston Center
Tue 12:29:41 PM 43.0439 -73.8492 115° Southeast 285 328 18,000  Level Boston Center
Tue 12:31:40 PM 43.0439 -73.8492 115° Southeast 285 328 18,000  Level Boston Center
Tue 12:33:00 PM 43.0500 -73.8500 75° East  Level FlightAware
Tue 12:40:00 PM 43.0507 -73.8616 75° East  Level Estimated

Login

Don't have an account? Register now (free) for customized features, flight alerts, and more!